sensor_id;sensor_type;location;lat;lon;timestamp;P1;durP1;ratioP1;P2;durP2;ratioP2
47167;SDS011;32931;47.778;17.806;2023-04-03T00:00:31;6.20;;;4.18;;
47167;SDS011;32931;47.778;17.806;2023-04-03T00:02:57;7.07;;;4.50;;
47167;SDS011;32931;47.778;17.806;2023-04-03T00:05:23;8.20;;;5.43;;
47167;SDS011;32931;47.778;17.806;2023-04-03T00:07:50;6.75;;;4.68;;
47167;SDS011;32931;47.778;17.806;2023-04-03T00:10:17;6.93;;;4.85;;
47167;SDS011;32931;47.778;17.806;2023-04-03T00:12:43;7.50;;;5.20;;
47167;SDS011;32931;47.778;17.806;2023-04-03T00:15:09;8.10;;;5.65;;
47167;SDS011;32931;47.778;17.806;2023-04-03T00:17:35;8.30;;;5.72;;
47167;SDS011;32931;47.778;17.806;2023-04-03T00:20:02;9.27;;;6.03;;
47167;SDS011;32931;47.778;17.806;2023-04-03T00:22:29;7.57;;;4.90;;
47167;SDS011;32931;47.778;17.806;2023-04-03T00:24:55;7.55;;;5.38;;
47167;SDS011;32931;47.778;17.806;2023-04-03T00:27:21;7.78;;;6.10;;
47167;SDS011;32931;47.778;17.806;2023-04-03T00:29:48;8.07;;;5.75;;
47167;SDS011;32931;47.778;17.806;2023-04-03T00:32:14;7.40;;;5.40;;
47167;SDS011;32931;47.778;17.806;2023-04-03T00:34:40;8.75;;;5.70;;
47167;SDS011;32931;47.778;17.806;2023-04-03T00:37:06;7.45;;;5.53;;
47167;SDS011;32931;47.778;17.806;2023-04-03T00:39:32;7.63;;;5.53;;
47167;SDS011;32931;47.778;17.806;2023-04-03T00:41:59;10.60;;;5.85;;
47167;SDS011;32931;47.778;17.806;2023-04-03T00:46:54;8.82;;;6.00;;
47167;SDS011;32931;47.778;17.806;2023-04-03T00:49:20;7.13;;;5.65;;
47167;SDS011;32931;47.778;17.806;2023-04-03T00:51:46;8.60;;;5.60;;
47167;SDS011;32931;47.778;17.806;2023-04-03T00:54:13;8.20;;;6.03;;
47167;SDS011;32931;47.778;17.806;2023-04-03T00:56:39;9.32;;;5.90;;
47167;SDS011;32931;47.778;17.806;2023-04-03T00:59:07;7.90;;;5.53;;
47167;SDS011;32931;47.778;17.806;2023-04-03T01:01:37;7.25;;;5.38;;
47167;SDS011;32931;47.778;17.806;2023-04-03T01:04:04;7.72;;;5.28;;
47167;SDS011;32931;47.778;17.806;2023-04-03T01:06:34;9.65;;;6.25;;
47167;SDS011;32931;47.778;17.806;2023-04-03T01:09:03;8.13;;;6.13;;
47167;SDS011;32931;47.778;17.806;2023-04-03T01:11:30;7.97;;;5.43;;
47167;SDS011;32931;47.778;17.806;2023-04-03T01:13:56;7.25;;;5.68;;
47167;SDS011;32931;47.778;17.806;2023-04-03T01:16:22;7.72;;;5.60;;
47167;SDS011;32931;47.778;17.806;2023-04-03T01:18:48;8.80;;;5.57;;
47167;SDS011;32931;47.778;17.806;2023-04-03T01:26:47;7.00;;;4.70;;
47167;SDS011;32931;47.778;17.806;2023-04-03T01:29:14;6.82;;;4.45;;
47167;SDS011;32931;47.778;17.806;2023-04-03T01:31:53;7.78;;;4.82;;
47167;SDS011;32931;47.778;17.806;2023-04-03T01:34:21;5.68;;;4.63;;
47167;SDS011;32931;47.778;17.806;2023-04-03T01:36:48;6.40;;;4.20;;
47167;SDS011;32931;47.778;17.806;2023-04-03T01:39:14;5.80;;;4.30;;
47167;SDS011;32931;47.778;17.806;2023-04-03T01:41:40;6.05;;;4.10;;
47167;SDS011;32931;47.778;17.806;2023-04-03T01:44:06;5.25;;;3.80;;
47167;SDS011;32931;47.778;17.806;2023-04-03T01:46:32;6.30;;;3.80;;
47167;SDS011;32931;47.778;17.806;2023-04-03T01:48:59;5.22;;;3.78;;
47167;SDS011;32931;47.778;17.806;2023-04-03T01:51:25;5.75;;;3.50;;
47167;SDS011;32931;47.778;17.806;2023-04-03T01:53:51;4.95;;;3.50;;
47167;SDS011;32931;47.778;17.806;2023-04-03T01:56:17;5.70;;;3.50;;
47167;SDS011;32931;47.778;17.806;2023-04-03T01:58:43;4.43;;;3.45;;
47167;SDS011;32931;47.778;17.806;2023-04-03T02:01:10;4.95;;;3.58;;
47167;SDS011;32931;47.778;17.806;2023-04-03T02:03:36;4.25;;;3.08;;
47167;SDS011;32931;47.778;17.806;2023-04-03T02:06:02;4.25;;;3.05;;
47167;SDS011;32931;47.778;17.806;2023-04-03T02:08:28;4.93;;;3.33;;
47167;SDS011;32931;47.778;17.806;2023-04-03T02:10:54;4.38;;;3.45;;
47167;SDS011;32931;47.778;17.806;2023-04-03T02:13:21;4.75;;;3.40;;
47167;SDS011;32931;47.778;17.806;2023-04-03T02:15:47;4.68;;;3.15;;
47167;SDS011;32931;47.778;17.806;2023-04-03T02:18:13;4.97;;;3.28;;
47167;SDS011;32931;47.778;17.806;2023-04-03T02:20:39;5.30;;;3.45;;
47167;SDS011;32931;47.778;17.806;2023-04-03T02:23:06;4.53;;;3.42;;
47167;SDS011;32931;47.778;17.806;2023-04-03T02:25:32;5.95;;;3.70;;
47167;SDS011;32931;47.778;17.806;2023-04-03T02:27:59;6.97;;;3.67;;
47167;SDS011;32931;47.778;17.806;2023-04-03T02:30:25;6.88;;;3.40;;
47167;SDS011;32931;47.778;17.806;2023-04-03T02:32:52;5.13;;;3.38;;
47167;SDS011;32931;47.778;17.806;2023-04-03T02:35:18;5.97;;;4.22;;
47167;SDS011;32931;47.778;17.806;2023-04-03T02:37:44;4.28;;;3.60;;
47167;SDS011;32931;47.778;17.806;2023-04-03T02:40:10;4.78;;;3.47;;
47167;SDS011;32931;47.778;17.806;2023-04-03T02:42:37;5.72;;;3.97;;
47167;SDS011;32931;47.778;17.806;2023-04-03T02:45:03;8.02;;;5.00;;
47167;SDS011;32931;47.778;17.806;2023-04-03T02:47:30;6.38;;;4.57;;
47167;SDS011;32931;47.778;17.806;2023-04-03T02:49:56;6.57;;;5.07;;
47167;SDS011;32931;47.778;17.806;2023-04-03T02:52:22;4.93;;;4.25;;
47167;SDS011;32931;47.778;17.806;2023-04-03T02:54:48;6.47;;;4.90;;
47167;SDS011;32931;47.778;17.806;2023-04-03T02:57:14;7.35;;;4.78;;
47167;SDS011;32931;47.778;17.806;2023-04-03T02:59:40;6.72;;;5.10;;
47167;SDS011;32931;47.778;17.806;2023-04-03T03:02:10;6.78;;;5.05;;
47167;SDS011;32931;47.778;17.806;2023-04-03T03:04:36;7.50;;;5.20;;
47167;SDS011;32931;47.778;17.806;2023-04-03T03:07:03;7.30;;;4.88;;
47167;SDS011;32931;47.778;17.806;2023-04-03T03:09:29;7.00;;;4.82;;
47167;SDS011;32931;47.778;17.806;2023-04-03T03:11:55;8.38;;;5.22;;
47167;SDS011;32931;47.778;17.806;2023-04-03T03:14:22;9.63;;;5.25;;
47167;SDS011;32931;47.778;17.806;2023-04-03T03:16:48;8.05;;;5.47;;
47167;SDS011;32931;47.778;17.806;2023-04-03T03:19:15;7.03;;;5.25;;
47167;SDS011;32931;47.778;17.806;2023-04-03T03:21:41;8.18;;;5.40;;
47167;SDS011;32931;47.778;17.806;2023-04-03T03:24:07;6.25;;;4.88;;
47167;SDS011;32931;47.778;17.806;2023-04-03T03:26:33;6.65;;;4.90;;
47167;SDS011;32931;47.778;17.806;2023-04-03T03:29:00;7.35;;;5.20;;
47167;SDS011;32931;47.778;17.806;2023-04-03T03:31:26;6.65;;;5.03;;
47167;SDS011;32931;47.778;17.806;2023-04-03T03:33:52;7.30;;;4.68;;
47167;SDS011;32931;47.778;17.806;2023-04-03T03:36:18;6.43;;;5.00;;
47167;SDS011;32931;47.778;17.806;2023-04-03T03:38:44;6.90;;;4.85;;
47167;SDS011;32931;47.778;17.806;2023-04-03T03:41:11;6.35;;;4.90;;
47167;SDS011;32931;47.778;17.806;2023-04-03T03:43:37;6.28;;;4.80;;
47167;SDS011;32931;47.778;17.806;2023-04-03T03:46:03;6.72;;;5.00;;
47167;SDS011;32931;47.778;17.806;2023-04-03T03:48:29;6.68;;;4.95;;
47167;SDS011;32931;47.778;17.806;2023-04-03T03:50:55;7.90;;;4.97;;
47167;SDS011;32931;47.778;17.806;2023-04-03T03:53:21;6.15;;;4.85;;
47167;SDS011;32931;47.778;17.806;2023-04-03T03:55:48;8.68;;;5.43;;
47167;SDS011;32931;47.778;17.806;2023-04-03T03:58:14;6.55;;;4.75;;
47167;SDS011;32931;47.778;17.806;2023-04-03T04:00:40;7.30;;;4.80;;
47167;SDS011;32931;47.778;17.806;2023-04-03T04:03:06;6.40;;;4.82;;
47167;SDS011;32931;47.778;17.806;2023-04-03T04:05:32;7.90;;;4.78;;
47167;SDS011;32931;47.778;17.806;2023-04-03T04:07:59;6.65;;;4.90;;
47167;SDS011;32931;47.778;17.806;2023-04-03T04:10:25;7.22;;;4.82;;
47167;SDS011;32931;47.778;17.806;2023-04-03T04:12:51;5.38;;;4.20;;
47167;SDS011;32931;47.778;17.806;2023-04-03T04:15:17;6.35;;;4.32;;
47167;SDS011;32931;47.778;17.806;2023-04-03T04:17:43;7.20;;;4.97;;
47167;SDS011;32931;47.778;17.806;2023-04-03T04:20:10;5.65;;;4.38;;
47167;SDS011;32931;47.778;17.806;2023-04-03T04:22:37;6.05;;;4.57;;
47167;SDS011;32931;47.778;17.806;2023-04-03T04:25:04;6.55;;;4.55;;
47167;SDS011;32931;47.778;17.806;2023-04-03T04:27:30;9.57;;;4.65;;
47167;SDS011;32931;47.778;17.806;2023-04-03T04:29:56;6.43;;;4.88;;
47167;SDS011;32931;47.778;17.806;2023-04-03T04:32:23;7.97;;;5.50;;
47167;SDS011;32931;47.778;17.806;2023-04-03T04:34:49;6.97;;;4.95;;
47167;SDS011;32931;47.778;17.806;2023-04-03T04:37:15;6.40;;;5.30;;
47167;SDS011;32931;47.778;17.806;2023-04-03T04:39:41;6.53;;;5.10;;
47167;SDS011;32931;47.778;17.806;2023-04-03T04:42:07;7.28;;;5.20;;
47167;SDS011;32931;47.778;17.806;2023-04-03T04:44:38;7.38;;;5.10;;
47167;SDS011;32931;47.778;17.806;2023-04-03T04:47:05;6.93;;;5.13;;
47167;SDS011;32931;47.778;17.806;2023-04-03T04:49:32;6.45;;;4.57;;
47167;SDS011;32931;47.778;17.806;2023-04-03T04:51:58;6.18;;;5.10;;
47167;SDS011;32931;47.778;17.806;2023-04-03T04:54:24;6.18;;;4.75;;
47167;SDS011;32931;47.778;17.806;2023-04-03T04:56:50;6.40;;;4.80;;
47167;SDS011;32931;47.778;17.806;2023-04-03T04:59:16;6.82;;;4.93;;
47167;SDS011;32931;47.778;17.806;2023-04-03T05:01:43;7.80;;;4.95;;
47167;SDS011;32931;47.778;17.806;2023-04-03T05:04:09;6.70;;;4.82;;
47167;SDS011;32931;47.778;17.806;2023-04-03T05:06:38;7.85;;;4.70;;
47167;SDS011;32931;47.778;17.806;2023-04-03T05:09:04;7.88;;;5.43;;
47167;SDS011;32931;47.778;17.806;2023-04-03T05:11:30;6.75;;;4.70;;
47167;SDS011;32931;47.778;17.806;2023-04-03T05:13:56;6.25;;;4.68;;
47167;SDS011;32931;47.778;17.806;2023-04-03T05:16:22;7.40;;;5.43;;
47167;SDS011;32931;47.778;17.806;2023-04-03T05:18:49;10.50;;;5.97;;
47167;SDS011;32931;47.778;17.806;2023-04-03T05:21:15;12.13;;;6.13;;
47167;SDS011;32931;47.778;17.806;2023-04-03T05:23:43;11.57;;;6.53;;
47167;SDS011;32931;47.778;17.806;2023-04-03T05:26:10;13.98;;;7.03;;
47167;SDS011;32931;47.778;17.806;2023-04-03T05:28:36;14.25;;;7.57;;
47167;SDS011;32931;47.778;17.806;2023-04-03T05:31:02;13.82;;;7.63;;
47167;SDS011;32931;47.778;17.806;2023-04-03T05:33:28;12.25;;;7.47;;
47167;SDS011;32931;47.778;17.806;2023-04-03T05:35:54;13.20;;;7.25;;
47167;SDS011;32931;47.778;17.806;2023-04-03T05:38:20;11.75;;;7.55;;
47167;SDS011;32931;47.778;17.806;2023-04-03T05:40:47;14.90;;;8.13;;
47167;SDS011;32931;47.778;17.806;2023-04-03T05:43:13;15.55;;;7.60;;
47167;SDS011;32931;47.778;17.806;2023-04-03T05:45:39;12.90;;;7.63;;
47167;SDS011;32931;47.778;17.806;2023-04-03T05:48:05;11.02;;;7.43;;
47167;SDS011;32931;47.778;17.806;2023-04-03T05:50:31;12.30;;;6.80;;
47167;SDS011;32931;47.778;17.806;2023-04-03T05:52:58;13.20;;;7.40;;
47167;SDS011;32931;47.778;17.806;2023-04-03T05:55:25;9.80;;;6.80;;
47167;SDS011;32931;47.778;17.806;2023-04-03T05:57:52;13.65;;;6.75;;
47167;SDS011;32931;47.778;17.806;2023-04-03T06:00:18;11.30;;;6.20;;
47167;SDS011;32931;47.778;17.806;2023-04-03T06:02:44;9.15;;;6.15;;
47167;SDS011;32931;47.778;17.806;2023-04-03T06:05:10;15.70;;;6.53;;
47167;SDS011;32931;47.778;17.806;2023-04-03T06:07:37;10.07;;;5.88;;
47167;SDS011;32931;47.778;17.806;2023-04-03T06:10:04;13.65;;;6.32;;
47167;SDS011;32931;47.778;17.806;2023-04-03T06:12:30;13.57;;;6.57;;
47167;SDS011;32931;47.778;17.806;2023-04-03T06:14:56;11.35;;;6.95;;
47167;SDS011;32931;47.778;17.806;2023-04-03T06:17:23;15.13;;;6.53;;
47167;SDS011;32931;47.778;17.806;2023-04-03T06:19:49;9.55;;;5.68;;
47167;SDS011;32931;47.778;17.806;2023-04-03T06:22:16;10.57;;;6.18;;
47167;SDS011;32931;47.778;17.806;2023-04-03T06:24:42;11.73;;;6.65;;
47167;SDS011;32931;47.778;17.806;2023-04-03T06:27:09;10.25;;;6.07;;
47167;SDS011;32931;47.778;17.806;2023-04-03T06:29:36;10.60;;;6.15;;
47167;SDS011;32931;47.778;17.806;2023-04-03T06:32:02;9.75;;;5.90;;
47167;SDS011;32931;47.778;17.806;2023-04-03T06:34:29;10.20;;;6.05;;
47167;SDS011;32931;47.778;17.806;2023-04-03T06:36:55;13.27;;;6.28;;
47167;SDS011;32931;47.778;17.806;2023-04-03T06:39:22;12.38;;;6.53;;
47167;SDS011;32931;47.778;17.806;2023-04-03T06:41:48;13.50;;;7.10;;
47167;SDS011;32931;47.778;17.806;2023-04-03T06:44:16;10.93;;;6.63;;
47167;SDS011;32931;47.778;17.806;2023-04-03T06:46:43;9.65;;;6.20;;
47167;SDS011;32931;47.778;17.806;2023-04-03T06:49:10;12.52;;;6.07;;
47167;SDS011;32931;47.778;17.806;2023-04-03T06:51:36;10.68;;;6.03;;
47167;SDS011;32931;47.778;17.806;2023-04-03T06:54:03;13.07;;;6.88;;
47167;SDS011;32931;47.778;17.806;2023-04-03T06:56:31;15.27;;;6.88;;
47167;SDS011;32931;47.778;17.806;2023-04-03T06:58:58;11.32;;;6.25;;
47167;SDS011;32931;47.778;17.806;2023-04-03T07:01:25;12.65;;;7.10;;
47167;SDS011;32931;47.778;17.806;2023-04-03T07:03:53;13.75;;;6.90;;
47167;SDS011;32931;47.778;17.806;2023-04-03T07:06:20;13.43;;;7.72;;
47167;SDS011;32931;47.778;17.806;2023-04-03T07:08:46;14.82;;;6.97;;
47167;SDS011;32931;47.778;17.806;2023-04-03T07:11:14;11.00;;;7.28;;
47167;SDS011;32931;47.778;17.806;2023-04-03T07:13:40;14.82;;;6.70;;
47167;SDS011;32931;47.778;17.806;2023-04-03T07:16:07;15.73;;;7.03;;
47167;SDS011;32931;47.778;17.806;2023-04-03T07:18:34;11.73;;;7.10;;
47167;SDS011;32931;47.778;17.806;2023-04-03T07:21:00;12.23;;;7.53;;
47167;SDS011;32931;47.778;17.806;2023-04-03T07:23:27;12.25;;;7.88;;
47167;SDS011;32931;47.778;17.806;2023-04-03T07:25:53;13.85;;;7.03;;
47167;SDS011;32931;47.778;17.806;2023-04-03T07:28:20;9.57;;;6.57;;
47167;SDS011;32931;47.778;17.806;2023-04-03T07:30:49;17.98;;;7.32;;
47167;SDS011;32931;47.778;17.806;2023-04-03T07:33:17;12.40;;;7.22;;
47167;SDS011;32931;47.778;17.806;2023-04-03T07:35:45;11.88;;;6.18;;
47167;SDS011;32931;47.778;17.806;2023-04-03T07:38:12;11.43;;;6.45;;
47167;SDS011;32931;47.778;17.806;2023-04-03T07:40:39;12.85;;;6.90;;
47167;SDS011;32931;47.778;17.806;2023-04-03T07:43:05;10.48;;;7.20;;
47167;SDS011;32931;47.778;17.806;2023-04-03T07:45:32;11.18;;;6.18;;
47167;SDS011;32931;47.778;17.806;2023-04-03T07:48:01;13.63;;;6.72;;
47167;SDS011;32931;47.778;17.806;2023-04-03T07:50:27;10.07;;;5.57;;
47167;SDS011;32931;47.778;17.806;2023-04-03T07:52:55;9.13;;;5.60;;
47167;SDS011;32931;47.778;17.806;2023-04-03T07:55:23;10.55;;;6.32;;
47167;SDS011;32931;47.778;17.806;2023-04-03T07:57:50;9.13;;;6.03;;
47167;SDS011;32931;47.778;17.806;2023-04-03T08:00:16;8.10;;;5.18;;
47167;SDS011;32931;47.778;17.806;2023-04-03T08:02:43;11.43;;;5.43;;
47167;SDS011;32931;47.778;17.806;2023-04-03T08:05:10;8.00;;;5.30;;
47167;SDS011;32931;47.778;17.806;2023-04-03T08:07:37;11.40;;;4.97;;
47167;SDS011;32931;47.778;17.806;2023-04-03T08:10:03;11.70;;;5.47;;
47167;SDS011;32931;47.778;17.806;2023-04-03T08:12:30;9.95;;;4.80;;
47167;SDS011;32931;47.778;17.806;2023-04-03T08:14:59;9.40;;;4.40;;
47167;SDS011;32931;47.778;17.806;2023-04-03T08:17:25;9.68;;;3.95;;
47167;SDS011;32931;47.778;17.806;2023-04-03T08:19:52;8.02;;;3.95;;
47167;SDS011;32931;47.778;17.806;2023-04-03T08:22:18;7.88;;;4.22;;
47167;SDS011;32931;47.778;17.806;2023-04-03T08:24:44;9.85;;;4.65;;
47167;SDS011;32931;47.778;17.806;2023-04-03T08:27:10;8.10;;;4.60;;
47167;SDS011;32931;47.778;17.806;2023-04-03T08:29:36;9.88;;;4.97;;
47167;SDS011;32931;47.778;17.806;2023-04-03T08:32:03;6.57;;;4.38;;
47167;SDS011;32931;47.778;17.806;2023-04-03T08:34:30;9.00;;;4.18;;
47167;SDS011;32931;47.778;17.806;2023-04-03T08:37:00;6.40;;;4.35;;
47167;SDS011;32931;47.778;17.806;2023-04-03T08:39:27;8.43;;;3.97;;
47167;SDS011;32931;47.778;17.806;2023-04-03T08:41:54;5.85;;;4.03;;
47167;SDS011;32931;47.778;17.806;2023-04-03T08:47:11;9.30;;;4.50;;
47167;SDS011;32931;47.778;17.806;2023-04-03T08:50:20;10.23;;;4.18;;
47167;SDS011;32931;47.778;17.806;2023-04-03T08:52:55;8.85;;;3.67;;
47167;SDS011;32931;47.778;17.806;2023-04-03T08:55:25;7.03;;;4.25;;
47167;SDS011;32931;47.778;17.806;2023-04-03T08:58:00;6.40;;;4.10;;
47167;SDS011;32931;47.778;17.806;2023-04-03T09:00:37;6.07;;;4.10;;
47167;SDS011;32931;47.778;17.806;2023-04-03T09:03:13;8.57;;;4.40;;
47167;SDS011;32931;47.778;17.806;2023-04-03T09:05:43;8.13;;;4.38;;
47167;SDS011;32931;47.778;17.806;2023-04-03T09:08:18;7.47;;;4.43;;
47167;SDS011;32931;47.778;17.806;2023-04-03T09:10:52;11.00;;;4.32;;
47167;SDS011;32931;47.778;17.806;2023-04-03T09:16:14;11.02;;;4.18;;
47167;SDS011;32931;47.778;17.806;2023-04-03T09:18:47;7.20;;;4.45;;
47167;SDS011;32931;47.778;17.806;2023-04-03T09:24:00;9.77;;;4.32;;
47167;SDS011;32931;47.778;17.806;2023-04-03T09:27:15;7.65;;;3.72;;
47167;SDS011;32931;47.778;17.806;2023-04-03T09:29:25;12.35;;;4.10;;
47167;SDS011;32931;47.778;17.806;2023-04-03T09:31:59;8.45;;;4.30;;
47167;SDS011;32931;47.778;17.806;2023-04-03T09:34:30;6.70;;;3.70;;
47167;SDS011;32931;47.778;17.806;2023-04-03T09:37:01;9.80;;;4.03;;
47167;SDS011;32931;47.778;17.806;2023-04-03T09:39:32;14.63;;;3.90;;
47167;SDS011;32931;47.778;17.806;2023-04-03T09:42:18;7.32;;;3.63;;
47167;SDS011;32931;47.778;17.806;2023-04-03T09:44:52;6.75;;;3.50;;
47167;SDS011;32931;47.778;17.806;2023-04-03T09:47:25;9.38;;;3.92;;
47167;SDS011;32931;47.778;17.806;2023-04-03T09:52:40;8.50;;;3.53;;
47167;SDS011;32931;47.778;17.806;2023-04-03T09:55:13;9.25;;;3.58;;
47167;SDS011;32931;47.778;17.806;2023-04-03T09:57:46;5.63;;;3.38;;
47167;SDS011;32931;47.778;17.806;2023-04-03T10:00:21;6.78;;;3.65;;
47167;SDS011;32931;47.778;17.806;2023-04-03T10:02:55;8.98;;;3.50;;
47167;SDS011;32931;47.778;17.806;2023-04-03T10:08:11;8.65;;;3.72;;
47167;SDS011;32931;47.778;17.806;2023-04-03T10:10:47;8.23;;;3.53;;
47167;SDS011;32931;47.778;17.806;2023-04-03T10:13:32;6.03;;;3.15;;
47167;SDS011;32931;47.778;17.806;2023-04-03T10:16:00;8.88;;;4.13;;
47167;SDS011;32931;47.778;17.806;2023-04-03T10:18:49;5.88;;;3.10;;
47167;SDS011;32931;47.778;17.806;2023-04-03T10:21:43;8.20;;;3.53;;
47167;SDS011;32931;47.778;17.806;2023-04-03T10:24:28;7.90;;;3.67;;
47167;SDS011;32931;47.778;17.806;2023-04-03T10:34:39;10.70;;;4.18;;
47167;SDS011;32931;47.778;17.806;2023-04-03T10:40:05;5.35;;;3.22;;
47167;SDS011;32931;47.778;17.806;2023-04-03T10:43:04;9.85;;;3.30;;
47167;SDS011;32931;47.778;17.806;2023-04-03T10:45:49;9.80;;;3.63;;
47167;SDS011;32931;47.778;17.806;2023-04-03T10:51:00;8.45;;;3.70;;
47167;SDS011;32931;47.778;17.806;2023-04-03T10:56:40;6.40;;;3.58;;
47167;SDS011;32931;47.778;17.806;2023-04-03T11:01:54;8.82;;;3.35;;
47167;SDS011;32931;47.778;17.806;2023-04-03T11:04:33;9.48;;;3.60;;
47167;SDS011;32931;47.778;17.806;2023-04-03T11:07:06;6.20;;;3.40;;
47167;SDS011;32931;47.778;17.806;2023-04-03T11:09:40;7.38;;;3.53;;
47167;SDS011;32931;47.778;17.806;2023-04-03T11:14:42;5.88;;;3.03;;
47167;SDS011;32931;47.778;17.806;2023-04-03T11:19:50;8.45;;;3.40;;
47167;SDS011;32931;47.778;17.806;2023-04-03T11:22:43;7.13;;;3.30;;
47167;SDS011;32931;47.778;17.806;2023-04-03T11:25:16;5.82;;;2.90;;
47167;SDS011;32931;47.778;17.806;2023-04-03T11:27:49;6.70;;;3.05;;
47167;SDS011;32931;47.778;17.806;2023-04-03T11:30:45;5.30;;;3.10;;
47167;SDS011;32931;47.778;17.806;2023-04-03T11:36:08;6.40;;;3.17;;
47167;SDS011;32931;47.778;17.806;2023-04-03T11:38:43;5.75;;;3.08;;
47167;SDS011;32931;47.778;17.806;2023-04-03T11:41:13;10.65;;;3.20;;
47167;SDS011;32931;47.778;17.806;2023-04-03T11:43:41;5.53;;;2.90;;
47167;SDS011;32931;47.778;17.806;2023-04-03T11:46:22;7.57;;;3.58;;
47167;SDS011;32931;47.778;17.806;2023-04-03T11:49:49;9.27;;;3.47;;
47167;SDS011;32931;47.778;17.806;2023-04-03T11:52:12;8.60;;;3.42;;
47167;SDS011;32931;47.778;17.806;2023-04-03T12:05:55;7.45;;;3.08;;
47167;SDS011;32931;47.778;17.806;2023-04-03T12:08:25;7.72;;;3.50;;
47167;SDS011;32931;47.778;17.806;2023-04-03T12:13:40;6.13;;;3.28;;
47167;SDS011;32931;47.778;17.806;2023-04-03T12:16:07;7.10;;;3.20;;
47167;SDS011;32931;47.778;17.806;2023-04-03T12:29:19;9.20;;;3.85;;
47167;SDS011;32931;47.778;17.806;2023-04-03T12:40:14;9.30;;;3.58;;
47167;SDS011;32931;47.778;17.806;2023-04-03T12:43:12;7.60;;;2.92;;
47167;SDS011;32931;47.778;17.806;2023-04-03T12:48:26;11.27;;;3.28;;
47167;SDS011;32931;47.778;17.806;2023-04-03T12:50:56;6.07;;;3.20;;
47167;SDS011;32931;47.778;17.806;2023-04-03T12:53:41;5.43;;;2.90;;
47167;SDS011;32931;47.778;17.806;2023-04-03T12:56:25;8.02;;;3.15;;
47167;SDS011;32931;47.778;17.806;2023-04-03T12:58:54;5.70;;;2.83;;
47167;SDS011;32931;47.778;17.806;2023-04-03T13:01:23;5.18;;;2.55;;
47167;SDS011;32931;47.778;17.806;2023-04-03T13:03:54;5.80;;;2.70;;
47167;SDS011;32931;47.778;17.806;2023-04-03T13:06:23;9.48;;;2.60;;
47167;SDS011;32931;47.778;17.806;2023-04-03T13:08:58;8.07;;;2.55;;
47167;SDS011;32931;47.778;17.806;2023-04-03T13:11:27;4.30;;;2.35;;
47167;SDS011;32931;47.778;17.806;2023-04-03T13:14:04;9.00;;;2.42;;
47167;SDS011;32931;47.778;17.806;2023-04-03T13:16:39;6.07;;;2.30;;
47167;SDS011;32931;47.778;17.806;2023-04-03T13:19:14;9.35;;;2.70;;
47167;SDS011;32931;47.778;17.806;2023-04-03T13:21:42;4.85;;;2.53;;
47167;SDS011;32931;47.778;17.806;2023-04-03T13:24:09;4.32;;;2.25;;
47167;SDS011;32931;47.778;17.806;2023-04-03T13:26:36;6.22;;;2.33;;
47167;SDS011;32931;47.778;17.806;2023-04-03T13:29:04;7.30;;;3.03;;
47167;SDS011;32931;47.778;17.806;2023-04-03T13:31:34;5.20;;;2.40;;
47167;SDS011;32931;47.778;17.806;2023-04-03T13:34:06;4.90;;;2.20;;
47167;SDS011;32931;47.778;17.806;2023-04-03T13:36:46;7.15;;;2.53;;
47167;SDS011;32931;47.778;17.806;2023-04-03T13:39:26;9.93;;;2.90;;
47167;SDS011;32931;47.778;17.806;2023-04-03T13:41:55;7.60;;;2.55;;
47167;SDS011;32931;47.778;17.806;2023-04-03T13:44:29;4.47;;;2.13;;
47167;SDS011;32931;47.778;17.806;2023-04-03T13:46:58;5.53;;;2.75;;
47167;SDS011;32931;47.778;17.806;2023-04-03T13:49:38;5.93;;;3.08;;
47167;SDS011;32931;47.778;17.806;2023-04-03T13:54:52;7.25;;;3.00;;
47167;SDS011;32931;47.778;17.806;2023-04-03T13:57:21;6.47;;;2.78;;
47167;SDS011;32931;47.778;17.806;2023-04-03T13:59:48;5.75;;;2.80;;
47167;SDS011;32931;47.778;17.806;2023-04-03T14:02:17;6.93;;;2.63;;
47167;SDS011;32931;47.778;17.806;2023-04-03T14:04:52;9.93;;;2.88;;
47167;SDS011;32931;47.778;17.806;2023-04-03T14:07:24;6.25;;;2.83;;
47167;SDS011;32931;47.778;17.806;2023-04-03T14:09:50;6.45;;;2.97;;
47167;SDS011;32931;47.778;17.806;2023-04-03T14:12:20;7.55;;;2.92;;
47167;SDS011;32931;47.778;17.806;2023-04-03T14:15:22;6.57;;;2.85;;
47167;SDS011;32931;47.778;17.806;2023-04-03T14:17:50;5.85;;;2.90;;
47167;SDS011;32931;47.778;17.806;2023-04-03T14:20:18;7.35;;;2.75;;
47167;SDS011;32931;47.778;17.806;2023-04-03T14:22:47;7.60;;;2.78;;
47167;SDS011;32931;47.778;17.806;2023-04-03T14:25:14;9.68;;;2.63;;
47167;SDS011;32931;47.778;17.806;2023-04-03T14:27:42;6.25;;;2.95;;
47167;SDS011;32931;47.778;17.806;2023-04-03T14:30:18;6.40;;;2.78;;
47167;SDS011;32931;47.778;17.806;2023-04-03T14:32:47;8.80;;;2.97;;
47167;SDS011;32931;47.778;17.806;2023-04-03T14:35:14;8.60;;;2.78;;
47167;SDS011;32931;47.778;17.806;2023-04-03T14:37:41;7.50;;;3.00;;
47167;SDS011;32931;47.778;17.806;2023-04-03T14:40:08;7.45;;;3.00;;
47167;SDS011;32931;47.778;17.806;2023-04-03T14:42:38;6.68;;;3.20;;
47167;SDS011;32931;47.778;17.806;2023-04-03T14:45:05;7.38;;;2.92;;
47167;SDS011;32931;47.778;17.806;2023-04-03T14:47:34;5.30;;;2.80;;
47167;SDS011;32931;47.778;17.806;2023-04-03T14:50:06;7.73;;;2.90;;
47167;SDS011;32931;47.778;17.806;2023-04-03T14:52:37;10.23;;;2.60;;
47167;SDS011;32931;47.778;17.806;2023-04-03T14:55:04;7.28;;;2.80;;
47167;SDS011;32931;47.778;17.806;2023-04-03T14:57:31;5.80;;;2.78;;
47167;SDS011;32931;47.778;17.806;2023-04-03T14:59:58;4.72;;;2.50;;
47167;SDS011;32931;47.778;17.806;2023-04-03T15:02:30;5.88;;;2.45;;
47167;SDS011;32931;47.778;17.806;2023-04-03T15:04:58;9.07;;;2.47;;
47167;SDS011;32931;47.778;17.806;2023-04-03T15:07:27;4.85;;;2.47;;
47167;SDS011;32931;47.778;17.806;2023-04-03T15:09:55;6.93;;;2.53;;
47167;SDS011;32931;47.778;17.806;2023-04-03T15:12:22;5.53;;;2.50;;
47167;SDS011;32931;47.778;17.806;2023-04-03T15:14:49;6.90;;;2.75;;
47167;SDS011;32931;47.778;17.806;2023-04-03T15:17:19;5.75;;;2.33;;
47167;SDS011;32931;47.778;17.806;2023-04-03T15:19:48;9.40;;;2.75;;
47167;SDS011;32931;47.778;17.806;2023-04-03T15:22:18;13.77;;;2.60;;
47167;SDS011;32931;47.778;17.806;2023-04-03T15:24:45;5.00;;;2.35;;
47167;SDS011;32931;47.778;17.806;2023-04-03T15:27:12;22.70;;;2.97;;
47167;SDS011;32931;47.778;17.806;2023-04-03T15:29:39;7.30;;;2.78;;
47167;SDS011;32931;47.778;17.806;2023-04-03T15:32:07;12.50;;;2.63;;
47167;SDS011;32931;47.778;17.806;2023-04-03T15:34:34;8.38;;;2.75;;
47167;SDS011;32931;47.778;17.806;2023-04-03T15:37:01;7.32;;;2.08;;
47167;SDS011;32931;47.778;17.806;2023-04-03T15:39:27;9.68;;;2.55;;
47167;SDS011;32931;47.778;17.806;2023-04-03T15:41:53;5.18;;;2.80;;
47167;SDS011;32931;47.778;17.806;2023-04-03T15:44:20;8.50;;;2.40;;
47167;SDS011;32931;47.778;17.806;2023-04-03T15:46:47;8.07;;;3.00;;
47167;SDS011;32931;47.778;17.806;2023-04-03T15:49:17;7.40;;;2.50;;
47167;SDS011;32931;47.778;17.806;2023-04-03T15:51:44;6.47;;;2.50;;
47167;SDS011;32931;47.778;17.806;2023-04-03T15:54:11;5.70;;;2.60;;
47167;SDS011;32931;47.778;17.806;2023-04-03T15:56:37;8.65;;;2.72;;
47167;SDS011;32931;47.778;17.806;2023-04-03T15:59:03;9.20;;;2.65;;
47167;SDS011;32931;47.778;17.806;2023-04-03T16:01:29;9.55;;;2.60;;
47167;SDS011;32931;47.778;17.806;2023-04-03T16:03:56;6.63;;;2.65;;
47167;SDS011;32931;47.778;17.806;2023-04-03T16:06:23;6.32;;;2.80;;
47167;SDS011;32931;47.778;17.806;2023-04-03T16:08:50;8.52;;;2.50;;